Time;durP1;ratioP1;P1;durP2;ratioP2;P2;SDS_P1;SDS_P2;PMS_P1;PMS_P2;Temp;Humidity;BMP_temperature;BMP_pressure;BME280_temperature;BME280_humidity;BME280_pressure;Samples;Min_cycle;Max_cycle;Signal;HPM_P1;HPM_P2
2022/01/26 00:00:58;;;;;;;21.40;6.57;;;;;;;1.12;99.80;97580.34;5059660;28;20299;-69
2022/01/26 00:06:16;;;;;;;15.77;6.63;;;;;;;1.19;99.04;97585.94;5059292;28;20207;-68
2022/01/26 00:08:42;;;;;;;14.07;7.17;;;;;;;1.14;99.03;97581.13;5056999;28;20278;-68
2022/01/26 00:11:09;;;;;;;11.87;6.07;;;;;;;1.10;99.13;97585.66;5059769;28;20196;-68
2022/01/26 00:13:35;;;;;;;11.10;6.27;;;;;;;1.09;99.13;97585.72;5059321;28;20669;-68
2022/01/26 00:16:05;;;;;;;13.97;5.70;;;;;;;1.17;98.94;97580.94;5058875;28;20209;-67
2022/01/26 00:18:35;;;;;;;12.77;4.57;;;;;;;1.22;98.33;97584.94;5058773;28;20763;-67
2022/01/26 00:21:08;;;;;;;14.67;5.70;;;;;;;0.91;99.47;97587.59;5059369;28;20719;-67
2022/01/26 00:26:37;;;;;;;14.67;4.87;;;;;;;1.04;98.85;97580.78;4996425;28;20195;-67
2022/01/26 00:29:12;;;;;;;26.77;7.43;;;;;;;1.19;99.19;97580.75;5045771;28;20598;-68
2022/01/26 00:39:58;;;;;;;13.90;6.30;;;;;;;1.21;99.84;97565.94;5058388;28;20897;-68
2022/01/26 00:42:25;;;;;;;18.10;6.77;;;;;;;0.91;100.00;97573.81;5058790;28;20672;-69
2022/01/26 00:44:52;;;;;;;15.37;6.83;;;;;;;0.92;100.00;97568.53;5059316;28;20200;-68
2022/01/26 00:47:19;;;;;;;11.33;4.43;;;;;;;0.86;100.00;97560.25;5058930;28;20220;-68
2022/01/26 00:49:45;;;;;;;9.13;5.40;;;;;;;0.88;100.00;97563.56;5058980;28;20257;-69
2022/01/26 00:52:19;;;;;;;12.03;6.57;;;;;;;1.12;99.78;97564.78;5058737;28;20200;-69
2022/01/26 00:54:46;;;;;;;18.53;8.63;;;;;;;1.37;98.76;97560.69;5058127;28;20287;-69
2022/01/26 00:57:14;;;;;;;11.70;6.37;;;;;;;1.52;99.08;97555.41;5058125;28;20227;-67
2022/01/26 00:59:41;;;;;;;26.53;6.40;;;;;;;1.35;99.16;97550.38;5059002;28;20196;-68
2022/01/26 01:02:08;;;;;;;6.07;5.10;;;;;;;1.51;98.04;97540.75;5057925;28;20200;-68
2022/01/26 01:04:34;;;;;;;14.73;8.43;;;;;;;1.20;98.77;97555.66;5058290;28;20204;-67
2022/01/26 01:07:03;;;;;;;32.40;8.73;;;;;;;1.45;98.32;97556.72;5058397;28;20239;-69
2022/01/26 01:09:33;;;;;;;15.40;7.10;;;;;;;1.08;99.54;97558.09;5056539;28;20319;-69
2022/01/26 01:12:02;;;;;;;6.27;4.70;;;;;;;1.12;99.85;97557.00;5058051;28;20656;-68
2022/01/26 01:14:36;;;;;;;20.40;6.67;;;;;;;1.38;99.32;97558.00;5057889;28;20205;-69
2022/01/26 01:17:04;;;;;;;19.77;6.47;;;;;;;1.29;98.86;97555.94;5057802;28;20225;-69
2022/01/26 01:19:36;;;;;;;11.43;6.43;;;;;;;1.05;99.78;97561.72;5058252;28;20291;-69
2022/01/26 01:25:29;;;;;;;11.30;5.23;;;;;;;1.30;99.21;97562.81;5058177;28;20276;-67
2022/01/26 01:30:35;;;;;;;15.13;8.50;;;;;;;1.46;99.04;97558.38;5039823;28;20255;-68
2022/01/26 01:33:07;;;;;;;13.57;5.60;;;;;;;1.30;99.26;97557.59;5058134;28;20250;-69
2022/01/26 01:35:36;;;;;;;18.47;8.00;;;;;;;1.13;100.00;97561.28;5061903;28;20209;-67
2022/01/26 01:38:09;;;;;;;21.20;7.67;;;;;;;1.10;100.00;97553.66;5058869;28;20847;-67
2022/01/26 01:40:37;;;;;;;18.60;8.10;;;;;;;1.18;100.00;97557.47;5058724;28;20976;-68
2022/01/26 01:43:04;;;;;;;23.03;6.37;;;;;;;1.21;99.82;97557.31;5057510;28;20200;-69
2022/01/26 01:45:35;;;;;;;22.47;7.80;;;;;;;1.35;100.00;97550.38;5057792;28;20211;-67
2022/01/26 01:48:01;;;;;;;19.37;8.80;;;;;;;1.08;100.00;97551.13;5056575;28;20216;-68
2022/01/26 01:50:29;;;;;;;20.03;8.60;;;;;;;1.29;100.00;97558.53;5057578;28;20227;-68
2022/01/26 01:53:00;;;;;;;8.57;5.30;;;;;;;1.14;99.42;97556.00;5057354;28;20209;-67
2022/01/26 01:55:27;;;;;;;16.60;7.53;;;;;;;1.11;100.00;97550.13;5057147;28;20210;-68
2022/01/26 01:57:54;;;;;;;16.67;8.30;;;;;;;1.24;99.86;97550.16;5057174;28;20225;-69
2022/01/26 02:00:21;;;;;;;26.30;8.77;;;;;;;1.18;99.60;97544.50;5058145;28;20191;-68
2022/01/26 02:02:48;;;;;;;9.93;5.93;;;;;;;1.37;99.78;97532.94;5056311;28;20200;-68
2022/01/26 02:05:15;;;;;;;11.97;6.80;;;;;;;1.11;100.00;97543.19;5057275;28;20200;-67
2022/01/26 02:07:41;;;;;;;10.70;6.03;;;;;;;1.37;99.17;97542.50;5056650;28;20791;-68
2022/01/26 02:10:09;;;;;;;4.53;3.57;;;;;;;1.00;100.00;97555.13;5053968;28;20227;-67
2022/01/26 02:12:39;;;;;;;23.30;8.40;;;;;;;1.05;99.91;97550.50;5056664;28;20214;-68
2022/01/26 02:15:12;;;;;;;9.03;6.13;;;;;;;1.30;99.55;97549.81;5057199;28;20204;-68
2022/01/26 02:18:04;;;;;;;15.07;7.93;;;;;;;1.19;99.48;97548.78;5056932;28;20224;-70
2022/01/26 02:20:50;;;;;;;14.60;7.03;;;;;;;1.23;100.00;97545.94;5057400;28;20330;-69
2022/01/26 02:53:41;;;;;;;15.77;6.33;;;;;;;1.54;98.16;97537.13;5052912;28;20269;-67
2022/01/26 02:56:14;;;;;;;25.37;6.00;;;;;;;1.50;97.23;97533.06;5057150;28;20589;-67
2022/01/26 02:58:58;;;;;;;15.23;7.80;;;;;;;1.38;97.64;97539.81;5056931;28;20220;-67
2022/01/26 03:01:50;;;;;;;21.17;6.00;;;;;;;1.42;97.39;97524.91;5056913;28;20205;-66
2022/01/26 03:04:24;;;;;;;16.40;6.57;;;;;;;1.39;97.77;97525.91;5056675;28;20250;-67
2022/01/26 03:06:57;;;;;;;21.70;5.17;;;;;;;1.07;98.54;97522.69;5056678;28;20212;-66
2022/01/26 03:09:29;;;;;;;11.93;4.83;;;;;;;0.98;99.42;97518.03;5052956;28;20231;-67
2022/01/26 03:11:57;;;;;;;13.20;7.33;;;;;;;0.94;99.62;97514.78;5058163;28;20203;-67
2022/01/26 03:14:33;;;;;;;29.70;8.07;;;;;;;1.18;98.42;97507.34;5055684;28;20204;-67
2022/01/26 03:17:06;;;;;;;16.40;7.33;;;;;;;1.13;99.20;97517.16;5056187;28;20221;-67
2022/01/26 03:19:37;;;;;;;13.63;6.00;;;;;;;1.09;99.03;97518.25;5057288;28;20199;-67
2022/01/26 03:28:07;;;;;;;19.63;8.80;;;;;;;1.39;98.73;97510.31;5056794;28;20208;-67
2022/01/26 03:30:50;;;;;;;14.27;7.27;;;;;;;1.34;97.46;97512.34;5055952;28;20250;-67
2022/01/26 03:33:35;;;;;;;22.17;7.70;;;;;;;1.19;97.84;97513.25;5056353;28;20212;-66
2022/01/26 03:36:10;;;;;;;22.03;7.57;;;;;;;0.99;98.52;97524.88;5056041;28;21231;-67
2022/01/26 03:38:42;;;;;;;18.43;6.53;;;;;;;1.13;98.11;97524.94;5058021;28;20344;-69
2022/01/26 03:41:16;;;;;;;18.03;5.57;;;;;;;1.27;97.37;97516.25;5057727;28;21108;-68
2022/01/26 03:43:43;;;;;;;13.87;4.80;;;;;;;1.05;97.70;97521.94;5056785;28;20295;-66
2022/01/26 03:46:09;;;;;;;19.53;8.60;;;;;;;1.04;97.19;97520.28;5056107;28;20197;-69
2022/01/26 03:48:36;;;;;;;18.53;8.00;;;;;;;1.29;96.49;97514.38;5056752;28;20224;-68
2022/01/26 03:51:03;;;;;;;20.00;8.23;;;;;;;1.14;97.70;97529.22;5052843;28;20227;-67
2022/01/26 03:53:29;;;;;;;18.27;7.83;;;;;;;1.21;97.22;97527.00;5058026;28;20197;-68
2022/01/26 03:55:56;;;;;;;15.33;7.37;;;;;;;1.31;96.57;97517.75;5059210;28;20200;-68
2022/01/26 03:58:24;;;;;;;35.50;10.07;;;;;;;1.51;96.92;97519.97;5060020;28;20218;-68
2022/01/26 04:00:50;;;;;;;9.63;6.37;;;;;;;1.26;96.93;97519.78;5059117;28;20650;-68
2022/01/26 04:03:17;;;;;;;21.97;8.43;;;;;;;1.42;95.82;97515.31;5059007;28;20204;-68
2022/01/26 04:05:44;;;;;;;15.40;6.03;;;;;;;1.19;96.80;97523.63;5059259;28;20233;-69
2022/01/26 04:08:15;;;;;;;8.80;5.30;;;;;;;0.88;97.69;97527.25;5059616;28;21427;-69
2022/01/26 04:10:52;;;;;;;39.30;8.43;;;;;;;0.88;97.98;97527.25;5055607;28;20278;-68
2022/01/26 04:13:19;;;;;;;16.43;5.87;;;;;;;1.10;97.35;97523.34;5059590;28;20204;-70
2022/01/26 04:15:47;;;;;;;9.33;5.27;;;;;;;1.09;97.84;97529.47;5059205;28;20211;-68
2022/01/26 04:18:18;;;;;;;13.20;5.97;;;;;;;1.15;97.08;97528.28;5058798;28;20221;-69
2022/01/26 04:20:49;;;;;;;18.00;7.87;;;;;;;1.14;97.14;97531.81;5059715;28;20197;-70
2022/01/26 04:23:21;;;;;;;7.90;4.70;;;;;;;0.95;97.32;97538.97;5059023;28;20212;-70
2022/01/26 04:25:49;;;;;;;16.93;4.10;;;;;;;0.92;96.85;97539.97;5058977;28;20262;-69
2022/01/26 04:28:20;;;;;;;13.00;7.20;;;;;;;1.08;96.84;97542.53;5058835;28;20231;-70
2022/01/26 04:30:49;;;;;;;15.93;7.60;;;;;;;1.10;97.37;97538.09;5059582;28;20234;-70
2022/01/26 04:33:16;;;;;;;12.00;4.20;;;;;;;0.64;97.25;97545.06;5058160;28;20200;-70
2022/01/26 04:35:44;;;;;;;4.97;4.00;;;;;;;0.52;98.23;97539.69;5058953;28;20199;-69
2022/01/26 04:38:18;;;;;;;23.83;7.53;;;;;;;0.60;98.03;97540.13;5058567;28;20567;-70
2022/01/26 04:40:54;;;;;;;14.57;6.60;;;;;;;0.69;97.91;97531.84;5058767;28;20296;-70
2022/01/26 04:43:25;;;;;;;13.23;7.90;;;;;;;0.78;97.38;97531.31;5057758;28;20668;-69
2022/01/26 04:45:52;;;;;;;16.73;8.27;;;;;;;0.74;97.89;97533.25;5058744;28;20859;-69
2022/01/26 04:48:19;;;;;;;18.83;4.10;;;;;;;0.73;97.80;97531.56;5058665;28;20228;-69
2022/01/26 04:50:46;;;;;;;16.17;7.17;;;;;;;0.97;96.82;97522.38;5058552;28;20747;-71
2022/01/26 04:53:12;;;;;;;22.40;8.63;;;;;;;0.92;96.56;97526.19;5058347;28;20196;-69
2022/01/26 04:55:39;;;;;;;14.87;7.53;;;;;;;0.76;97.14;97517.59;5058494;28;20216;-70
2022/01/26 04:58:06;;;;;;;10.70;5.63;;;;;;;0.93;96.73;97514.84;5057959;28;20223;-70
2022/01/26 05:00:32;;;;;;;3.87;3.47;;;;;;;0.67;97.17;97523.28;5058679;28;20207;-69
2022/01/26 05:03:00;;;;;;;21.33;6.47;;;;;;;0.97;97.54;97531.91;5058316;28;20201;-69
2022/01/26 05:05:27;;;;;;;13.60;5.60;;;;;;;0.68;97.18;97524.97;5057876;28;20211;-70
2022/01/26 05:07:53;;;;;;;13.40;6.10;;;;;;;0.51;97.13;97513.84;5058361;28;20212;-70
2022/01/26 05:10:20;;;;;;;13.77;6.53;;;;;;;0.54;98.39;97527.50;5056323;28;20241;-70
2022/01/26 05:12:47;;;;;;;10.73;5.07;;;;;;;0.47;98.42;97520.16;5057638;28;20200;-69
2022/01/26 05:15:13;;;;;;;24.17;5.90;;;;;;;0.70;98.18;97528.28;5058030;28;20200;-69
2022/01/26 05:17:41;;;;;;;8.63;4.23;;;;;;;0.72;97.16;97523.88;5058438;28;20251;-70
2022/01/26 05:20:10;;;;;;;16.77;6.67;;;;;;;1.12;96.36;97520.66;5057579;28;20720;-69
2022/01/26 05:22:39;;;;;;;7.67;5.17;;;;;;;0.91;96.10;97535.69;5057195;28;20287;-70
2022/01/26 05:25:06;;;;;;;14.17;7.50;;;;;;;0.64;96.50;97539.84;5057961;28;20684;-69
2022/01/26 05:27:32;;;;;;;12.83;5.30;;;;;;;0.60;96.70;97527.16;5058343;28;20704;-70
2022/01/26 05:29:59;;;;;;;20.70;6.63;;;;;;;0.56;97.43;97528.25;5057713;28;20204;-70
2022/01/26 05:32:26;;;;;;;18.80;8.37;;;;;;;0.67;96.42;97538.84;5057609;28;20250;-70
2022/01/26 05:34:53;;;;;;;14.63;6.97;;;;;;;0.64;96.23;97537.28;5057899;28;20200;-69
2022/01/26 05:37:21;;;;;;;15.03;8.10;;;;;;;1.03;95.46;97540.22;5057962;28;20224;-70
2022/01/26 05:39:47;;;;;;;16.00;6.60;;;;;;;0.50;96.62;97546.75;5056809;28;20211;-70
2022/01/26 05:42:14;;;;;;;20.27;5.17;;;;;;;0.47;97.42;97549.53;5057338;28;20212;-70
2022/01/26 05:44:41;;;;;;;7.13;4.23;;;;;;;0.57;96.66;97548.06;5060359;28;20204;-71
2022/01/26 05:47:13;;;;;;;16.63;7.17;;;;;;;0.73;96.03;97554.09;5060205;28;20693;-70
2022/01/26 05:49:40;;;;;;;19.00;7.17;;;;;;;0.65;95.77;97546.72;5059071;28;20196;-71
2022/01/26 05:52:07;;;;;;;13.03;4.17;;;;;;;0.83;96.33;97550.06;5058347;28;20225;-69
2022/01/26 05:54:35;;;;;;;9.27;4.40;;;;;;;0.95;95.78;97550.16;5058146;28;20223;-70
2022/01/26 05:57:01;;;;;;;6.67;3.67;;;;;;;0.67;96.59;97547.47;5057406;28;20224;-69
2022/01/26 05:59:28;;;;;;;3.40;2.57;;;;;;;0.21;97.72;97544.91;5057534;28;20235;-70
2022/01/26 06:01:55;;;;;;;16.23;5.67;;;;;;;0.22;97.81;97544.00;5057291;28;20948;-71
2022/01/26 06:04:22;;;;;;;18.07;7.83;;;;;;;0.18;97.85;97545.09;5057403;28;20197;-70
2022/01/26 06:06:48;;;;;;;12.77;7.47;;;;;;;-0.01;99.10;97549.56;5056860;28;20443;-71
2022/01/26 06:09:15;;;;;;;10.20;6.37;;;;;;;0.17;99.05;97545.16;5053982;28;20216;-70
2022/01/26 06:11:42;;;;;;;19.53;5.23;;;;;;;0.29;99.17;97547.09;5057444;28;20227;-69
2022/01/26 06:14:09;;;;;;;25.07;9.87;;;;;;;0.49;97.91;97552.84;5056753;28;20211;-70
2022/01/26 06:16:36;;;;;;;15.63;3.67;;;;;;;0.43;96.83;97550.59;5056539;28;20216;-71
2022/01/26 06:19:02;;;;;;;13.63;7.07;;;;;;;0.71;96.16;97550.72;5057452;28;20203;-71
2022/01/26 06:21:29;;;;;;;27.70;7.10;;;;;;;0.39;97.17;97556.88;5056206;28;20200;-69
2022/01/26 06:23:55;;;;;;;21.33;6.43;;;;;;;0.44;97.78;97556.63;5056075;28;20689;-67
2022/01/26 06:26:22;;;;;;;15.27;6.33;;;;;;;0.33;97.78;97554.63;5057056;28;20211;-67
2022/01/26 06:28:50;;;;;;;17.60;6.70;;;;;;;0.56;97.31;97556.78;5056277;28;20212;-69
2022/01/26 06:31:18;;;;;;;18.47;7.10;;;;;;;0.45;97.57;97553.13;5056039;28;20226;-69
2022/01/26 06:33:46;;;;;;;12.07;5.53;;;;;;;0.35;97.41;97550.16;5056911;28;20289;-70
2022/01/26 06:36:16;;;;;;;7.37;4.33;;;;;;;0.33;97.65;97553.78;5057268;28;20236;-70
2022/01/26 06:38:44;;;;;;;10.30;3.00;;;;;;;0.23;97.81;97555.19;5056401;28;20655;-70
2022/01/26 06:41:11;;;;;;;9.57;5.63;;;;;;;0.40;97.49;97558.53;5055704;28;20196;-70
2022/01/26 06:43:46;;;;;;;14.97;5.80;;;;;;;0.09;98.57;97555.13;5057110;28;20505;-69
2022/01/26 06:46:21;;;;;;;13.10;4.17;;;;;;;0.24;99.06;97554.28;5057073;28;20567;-71
2022/01/26 06:49:03;;;;;;;7.83;4.30;;;;;;;0.33;98.12;97554.63;5056212;28;20590;-69
2022/01/26 06:51:29;;;;;;;18.40;4.97;;;;;;;0.44;98.11;97562.63;5057238;28;20216;-67
2022/01/26 06:53:56;;;;;;;9.97;5.00;;;;;;;0.36;97.22;97558.81;5055847;28;20201;-68
2022/01/26 06:56:22;;;;;;;10.37;5.97;;;;;;;0.35;97.00;97551.94;5053483;28;20208;-70
2022/01/26 06:58:48;;;;;;;15.70;7.53;;;;;;;0.31;97.00;97553.03;5056830;28;20224;-70
2022/01/26 07:01:16;;;;;;;11.13;6.07;;;;;;;0.28;97.46;97550.59;5056392;28;20206;-69
2022/01/26 07:03:43;;;;;;;16.70;6.00;;;;;;;0.34;97.17;97548.50;5056282;28;20201;-70
2022/01/26 07:06:09;;;;;;;19.40;7.00;;;;;;;0.40;96.61;97540.41;5056070;28;20200;-70
2022/01/26 07:08:36;;;;;;;12.00;7.03;;;;;;;0.32;96.06;97539.97;5056337;28;20515;-72
2022/01/26 07:11:02;;;;;;;16.77;6.40;;;;;;;0.26;96.78;97544.66;5057109;28;20235;-69
2022/01/26 07:13:29;;;;;;;9.80;4.27;;;;;;;0.05;97.18;97549.25;5055586;28;20596;-70
2022/01/26 07:21:39;;;;;;;9.60;5.20;;;;;;;0.09;97.96;97545.56;4974979;28;20249;-69
2022/01/26 07:24:06;;;;;;;13.30;7.13;;;;;;;0.25;97.64;97538.63;4973710;28;20219;-69
2022/01/26 07:26:33;;;;;;;11.97;4.17;;;;;;;0.27;97.24;97546.34;5009845;28;20213;-71
2022/01/26 07:29:05;;;;;;;20.33;7.77;;;;;;;0.54;97.06;97557.78;5058942;28;20200;-70
2022/01/26 07:31:33;;;;;;;15.80;7.10;;;;;;;0.29;96.51;97553.09;5060080;28;20226;-69
2022/01/26 07:34:01;;;;;;;17.77;7.33;;;;;;;0.65;96.44;97564.06;5059693;28;20201;-69
2022/01/26 07:36:27;;;;;;;11.57;6.23;;;;;;;0.52;96.22;97557.84;5060142;28;20203;-72
2022/01/26 07:38:57;;;;;;;15.27;6.77;;;;;;;0.60;95.64;97559.13;5059981;28;20243;-72
2022/01/26 07:41:23;;;;;;;4.67;3.90;;;;;;;-0.15;96.77;97564.19;5061240;28;20695;-70
2022/01/26 07:43:50;;;;;;;11.53;6.10;;;;;;;0.14;96.76;97574.69;5059499;28;20201;-70
2022/01/26 07:46:17;;;;;;;20.90;7.83;;;;;;;0.21;96.99;97575.19;5060380;28;20310;-69
2022/01/26 07:48:43;;;;;;;15.10;6.80;;;;;;;-0.13;97.26;97569.28;5059693;28;20224;-72
2022/01/26 07:51:11;;;;;;;6.70;5.13;;;;;;;0.02;97.60;97575.31;5060476;28;20224;-70
2022/01/26 07:53:37;;;;;;;7.00;5.00;;;;;;;-0.38;98.86;97574.03;5058845;28;20216;-70
2022/01/26 07:56:05;;;;;;;8.83;3.13;;;;;;;-0.14;98.13;97583.13;5057201;28;20212;-71
2022/01/26 07:58:31;;;;;;;13.07;7.10;;;;;;;-0.02;97.97;97588.53;5059703;28;20659;-71
2022/01/26 08:00:58;;;;;;;12.93;5.87;;;;;;;-0.30;98.54;97582.28;5060068;28;20200;-71
2022/01/26 08:03:25;;;;;;;12.40;5.87;;;;;;;-0.30;99.00;97577.09;5058914;28;20587;-71
2022/01/26 08:05:52;;;;;;;19.77;5.77;;;;;;;-0.29;99.02;97584.78;5059411;28;20481;-71
2022/01/26 08:08:19;;;;;;;9.43;6.80;;;;;;;-0.32;100.00;97592.72;5059374;28;21148;-69
2022/01/26 08:10:49;;;;;;;9.90;5.47;;;;;;;-0.16;99.34;97595.34;5059185;28;20216;-69
2022/01/26 08:13:15;;;;;;;7.97;3.50;;;;;;;-0.19;98.91;97582.53;5059557;28;21172;-69
2022/01/26 08:15:42;;;;;;;13.13;5.50;;;;;;;-0.05;98.26;97582.66;5060037;28;20203;-69
2022/01/26 08:18:08;;;;;;;15.33;6.97;;;;;;;-0.02;97.94;97579.94;5059452;28;20216;-69
2022/01/26 08:20:34;;;;;;;12.40;7.57;;;;;;;0.22;97.69;97582.88;5060132;28;20212;-68
2022/01/26 08:23:01;;;;;;;9.97;4.77;;;;;;;0.20;97.57;97584.69;5059507;28;20198;-69
2022/01/26 08:25:29;;;;;;;8.57;4.50;;;;;;;0.42;97.13;97587.81;5059085;28;20868;-70
2022/01/26 08:28:02;;;;;;;14.17;6.73;;;;;;;0.51;96.19;97594.25;5059592;28;20231;-69
2022/01/26 08:30:31;;;;;;;16.33;4.77;;;;;;;0.18;96.42;97593.50;5059346;28;20197;-68
2022/01/26 08:32:57;;;;;;;16.03;6.00;;;;;;;-0.10;97.32;97598.47;5058750;28;20224;-70
2022/01/26 08:35:23;;;;;;;18.67;6.23;;;;;;;0.12;97.72;97597.22;5059178;28;20684;-70
2022/01/26 08:37:50;;;;;;;22.07;5.33;;;;;;;0.19;96.96;97593.41;5059261;28;20221;-69
2022/01/26 08:40:17;;;;;;;17.00;5.97;;;;;;;0.45;96.04;97605.78;5057859;28;20215;-69
2022/01/26 08:42:45;;;;;;;9.40;5.17;;;;;;;0.53;95.93;97606.22;5055307;28;20227;-69
2022/01/26 08:45:11;;;;;;;18.57;7.87;;;;;;;0.40;95.82;97607.81;5058401;28;20204;-69
2022/01/26 08:47:38;;;;;;;22.97;6.67;;;;;;;0.43;96.19;97602.44;5058314;28;20223;-70
2022/01/26 08:50:06;;;;;;;18.73;7.47;;;;;;;0.04;96.98;97599.41;5057949;28;20198;-68
2022/01/26 08:52:32;;;;;;;11.73;7.30;;;;;;;-0.02;97.81;97604.91;5058096;28;20236;-70
2022/01/26 08:54:59;;;;;;;6.80;5.37;;;;;;;-0.03;97.76;97612.75;5058820;28;20669;-70
2022/01/26 08:57:25;;;;;;;6.43;5.03;;;;;;;0.01;97.46;97609.94;5058552;28;20222;-69
2022/01/26 08:59:53;;;;;;;12.90;7.23;;;;;;;0.34;97.26;97608.13;5058829;28;20200;-69
2022/01/26 09:02:20;;;;;;;12.07;5.93;;;;;;;-0.03;97.25;97609.34;5055079;28;20545;-68
2022/01/26 09:04:46;;;;;;;18.93;4.67;;;;;;;0.04;97.88;97604.56;5058210;28;20220;-69
2022/01/26 09:07:15;;;;;;;24.90;7.63;;;;;;;0.35;97.04;97609.81;5057772;28;20220;-69
2022/01/26 09:09:44;;;;;;;3.90;3.03;;;;;;;-0.08;96.80;97614.75;5058429;28;20258;-69
2022/01/26 09:12:11;;;;;;;6.23;5.07;;;;;;;-0.09;97.40;97612.22;5057351;28;20227;-69
2022/01/26 09:14:38;;;;;;;14.13;5.60;;;;;;;0.07;97.48;97613.94;5058205;28;20215;-70
2022/01/26 09:17:08;;;;;;;11.50;5.37;;;;;;;0.18;97.31;97604.69;5057726;28;20226;-68
2022/01/26 09:19:36;;;;;;;23.87;6.63;;;;;;;0.23;97.56;97605.28;5057548;28;20254;-71
2022/01/26 09:22:05;;;;;;;8.07;5.37;;;;;;;0.65;97.30;97608.97;5057897;28;20206;-69
2022/01/26 09:24:33;;;;;;;8.07;3.93;;;;;;;0.83;96.33;97609.72;5057346;28;20207;-70
2022/01/26 09:27:00;;;;;;;18.90;8.70;;;;;;;0.44;96.33;97611.91;5057222;28;20220;-69
2022/01/26 09:29:27;;;;;;;3.17;2.87;;;;;;;0.30;96.32;97605.78;5057685;28;20206;-69
2022/01/26 09:31:55;;;;;;;12.17;3.63;;;;;;;0.65;95.69;97598.59;5058289;28;20232;-70
2022/01/26 09:34:25;;;;;;;9.27;4.50;;;;;;;0.96;95.29;97608.94;5056490;28;20197;-69
2022/01/26 09:36:52;;;;;;;7.43;4.93;;;;;;;0.76;94.42;97603.19;5057271;28;20200;-69
2022/01/26 09:39:21;;;;;;;4.57;3.27;;;;;;;0.54;95.48;97614.84;5057243;28;20696;-70
2022/01/26 09:41:49;;;;;;;6.57;4.20;;;;;;;0.36;95.68;97619.25;5058111;28;20196;-68
2022/01/26 09:44:17;;;;;;;8.30;3.40;;;;;;;0.46;94.66;97628.22;5056413;28;20910;-69
2022/01/26 09:46:45;;;;;;;7.73;4.03;;;;;;;0.69;93.84;97620.84;5056776;28;20207;-70
2022/01/26 09:49:15;;;;;;;10.87;6.17;;;;;;;0.70;93.13;97613.91;5057389;28;20208;-70
2022/01/26 09:51:46;;;;;;;27.13;5.93;;;;;;;0.97;92.45;97610.63;5056360;28;20598;-69
2022/01/26 09:54:16;;;;;;;10.80;6.67;;;;;;;1.12;91.75;97621.88;5056173;28;20204;-70
2022/01/26 09:56:43;;;;;;;20.17;6.07;;;;;;;0.89;90.77;97633.56;5056937;28;20232;-69
2022/01/26 09:59:11;;;;;;;16.33;5.70;;;;;;;0.61;93.31;97630.81;5056074;28;20197;-69
2022/01/26 10:01:42;;;;;;;10.30;5.93;;;;;;;0.69;94.29;97638.19;5054598;28;20209;-70
2022/01/26 10:04:19;;;;;;;9.27;5.37;;;;;;;0.86;94.21;97644.09;5055684;28;20211;-69
2022/01/26 10:06:58;;;;;;;14.67;7.27;;;;;;;0.72;93.74;97635.41;5056409;28;20216;-69
2022/01/26 10:09:45;;;;;;;12.53;4.33;;;;;;;0.71;93.03;97633.72;5056354;28;20200;-70
2022/01/26 10:17:45;;;;;;;14.43;5.50;;;;;;;1.04;92.66;97600.72;5058714;28;20311;-70
2022/01/26 10:20:15;;;;;;;8.97;5.87;;;;;;;0.87;92.82;97596.47;5058575;28;20231;-69
2022/01/26 10:22:43;;;;;;;9.57;6.80;;;;;;;0.92;92.02;97594.47;5058174;28;20197;-69
2022/01/26 10:25:13;;;;;;;9.57;4.07;;;;;;;1.18;90.73;97586.03;5058237;28;20201;-69
2022/01/26 10:27:42;;;;;;;6.33;5.33;;;;;;;0.89;90.48;97580.81;5059520;28;20221;-68
2022/01/26 10:30:12;;;;;;;17.63;8.07;;;;;;;0.88;92.13;97568.75;5057195;28;20200;-70
2022/01/26 10:32:39;;;;;;;6.23;3.97;;;;;;;0.64;92.70;97565.81;5055114;28;20296;-69
2022/01/26 10:35:07;;;;;;;6.83;2.53;;;;;;;0.42;94.22;97564.50;5056371;28;21040;-70
2022/01/26 10:37:34;;;;;;;13.33;6.57;;;;;;;0.48;94.81;97564.13;5056623;28;20596;-70
2022/01/26 10:40:13;;;;;;;7.77;4.37;;;;;;;0.89;94.78;97570.44;5055704;28;20700;-69
2022/01/26 10:42:40;;;;;;;16.60;5.73;;;;;;;0.63;94.20;97568.47;5055795;28;20199;-69
2022/01/26 10:45:12;;;;;;;9.47;4.77;;;;;;;0.76;93.87;97566.88;5055624;28;20208;-68
2022/01/26 10:47:44;;;;;;;14.20;6.07;;;;;;;0.90;92.97;97572.13;5055902;28;20220;-70
2022/01/26 10:50:43;;;;;;;8.70;5.60;;;;;;;1.30;93.01;97556.78;5058197;28;20199;-69
2022/01/26 10:53:12;;;;;;;13.93;7.10;;;;;;;0.86;94.17;97568.03;5058843;28;21210;-68
2022/01/26 10:55:41;;;;;;;22.87;7.57;;;;;;;0.96;93.70;97556.22;5059028;28;20211;-69
2022/01/26 10:58:08;;;;;;;14.67;6.07;;;;;;;1.05;93.20;97547.91;5059682;28;20802;-69
2022/01/26 11:00:38;;;;;;;9.03;5.13;;;;;;;1.57;92.79;97548.19;5054159;28;20987;-69
2022/01/26 11:03:05;;;;;;;16.50;7.17;;;;;;;1.23;93.08;97564.09;5059908;28;20198;-69
2022/01/26 11:05:31;;;;;;;28.30;8.17;;;;;;;1.21;93.76;97552.94;5061144;28;21278;-69
2022/01/26 11:07:59;;;;;;;6.20;5.60;;;;;;;1.15;93.97;97546.47;5060545;28;20228;-68
2022/01/26 11:10:33;;;;;;;8.17;3.30;;;;;;;1.07;94.80;97548.63;5060201;28;20584;-70
2022/01/26 11:13:02;;;;;;;7.37;3.97;;;;;;;0.98;94.58;97534.44;5059692;28;20220;-69
2022/01/26 11:15:28;;;;;;;13.33;6.73;;;;;;;0.92;94.97;97533.97;5060234;28;20773;-69
2022/01/26 11:18:07;;;;;;;16.80;10.17;;;;;;;1.56;93.31;97525.72;5060500;28;20231;-69
2022/01/26 11:20:45;;;;;;;4.13;3.10;;;;;;;1.30;94.55;97528.22;5060245;28;20205;-69
2022/01/26 11:23:13;;;;;;;11.70;2.87;;;;;;;1.18;94.00;97535.88;5060229;28;20196;-70
2022/01/26 11:25:42;;;;;;;14.73;6.20;;;;;;;1.43;95.63;97542.97;5059754;28;20205;-69
2022/01/26 11:28:20;;;;;;;15.43;5.77;;;;;;;1.85;94.08;97548.22;5060321;28;20251;-68
2022/01/26 11:30:47;;;;;;;26.53;9.97;;;;;;;1.61;93.58;97535.88;5059825;28;20200;-68
2022/01/26 11:33:17;;;;;;;12.73;6.60;;;;;;;2.18;92.76;97549.59;5059148;28;20260;-69
2022/01/26 11:35:47;;;;;;;23.03;6.17;;;;;;;1.92;91.75;97554.69;5058961;28;20201;-69
2022/01/26 11:38:51;;;;;;;10.10;4.50;;;;;;;1.96;92.92;97556.19;5059179;28;20307;-69
2022/01/26 11:46:54;;;;;;;18.10;7.70;;;;;;;1.83;92.28;97568.25;5024895;28;20198;-69
2022/01/26 11:49:25;;;;;;;12.00;5.10;;;;;;;2.16;91.47;97566.19;5058642;28;20196;-70
2022/01/26 11:51:57;;;;;;;16.73;7.07;;;;;;;2.09;93.04;97578.75;5058364;28;20204;-68
2022/01/26 11:54:25;;;;;;;12.40;5.67;;;;;;;1.97;94.26;97581.25;5058385;28;20846;-69
2022/01/26 11:57:04;;;;;;;23.37;9.37;;;;;;;2.00;93.04;97583.69;5059399;28;20257;-68
2022/01/26 11:59:34;;;;;;;12.77;5.57;;;;;;;1.93;93.76;97579.75;5059921;28;20194;-70
2022/01/26 12:02:06;;;;;;;6.83;3.60;;;;;;;1.74;94.03;97568.81;5056925;28;20288;-69
2022/01/26 12:04:35;;;;;;;14.77;7.27;;;;;;;1.84;94.84;97575.13;5058771;28;20200;-68
2022/01/26 12:07:18;;;;;;;13.50;5.60;;;;;;;1.73;94.89;97574.91;5059628;28;20224;-66
2022/01/26 12:09:44;;;;;;;9.30;6.40;;;;;;;1.73;96.56;97572.31;5059752;28;21048;-67
2022/01/26 12:12:17;;;;;;;17.90;6.87;;;;;;;1.73;94.30;97574.09;5058589;28;20248;-67
2022/01/26 12:14:59;;;;;;;8.53;4.77;;;;;;;1.95;94.99;97567.53;5058678;28;20197;-69
2022/01/26 12:17:30;;;;;;;14.47;7.20;;;;;;;1.93;93.20;97559.78;5058464;28;20311;-69
2022/01/26 12:31:58;;;;;;;24.13;9.67;;;;;;;2.18;92.48;97554.78;5059028;28;20201;-70
2022/01/26 12:36:59;;;;;;;19.10;8.63;;;;;;;2.48;91.09;97522.50;5053730;28;20679;-70
2022/01/26 12:42:11;;;;;;;31.30;12.87;;;;;;;2.26;91.69;97499.69;5055591;28;20208;-70
2022/01/26 12:44:38;;;;;;;24.40;6.90;;;;;;;2.10;92.90;97509.38;5057903;28;20212;-70
2022/01/26 12:47:07;;;;;;;22.13;10.03;;;;;;;2.29;91.29;97502.09;5058592;28;20223;-70
2022/01/26 12:49:34;;;;;;;20.87;8.93;;;;;;;2.41;91.66;97494.38;5057473;28;20213;-69
2022/01/26 12:52:01;;;;;;;23.20;8.93;;;;;;;2.54;92.08;97490.88;5057994;28;20203;-70
2022/01/26 12:54:28;;;;;;;16.10;5.73;;;;;;;2.67;91.81;97503.94;5057194;28;20207;-70
2022/01/26 12:57:04;;;;;;;24.90;8.53;;;;;;;2.49;92.28;97511.13;5057859;28;21167;-69
2022/01/26 12:59:30;;;;;;;16.83;7.93;;;;;;;2.55;91.79;97522.94;5057354;28;20218;-69
2022/01/26 13:01:57;;;;;;;14.17;6.90;;;;;;;2.69;92.89;97526.31;5055271;28;20226;-70
2022/01/26 13:04:26;;;;;;;18.87;8.90;;;;;;;3.00;91.81;97523.41;5056558;28;20200;-68
2022/01/26 13:06:54;;;;;;;25.77;9.03;;;;;;;3.32;90.60;97509.06;5057757;28;20204;-69
2022/01/26 13:09:25;;;;;;;18.40;8.13;;;;;;;3.17;89.55;97523.97;5058075;28;20287;-70
2022/01/26 13:11:52;;;;;;;31.20;10.70;;;;;;;3.32;90.00;97522.09;5058940;28;20200;-69
2022/01/26 13:14:24;;;;;;;25.50;10.27;;;;;;;3.08;90.98;97519.38;5056525;28;20227;-68